createdAt,value
2023-05-07T00:01:12.967Z,101011.63
2023-05-07T00:03:40.834Z,101019.88
2023-05-07T00:06:08.957Z,101009.28
2023-05-07T00:08:36.687Z,101014.63
2023-05-07T00:11:04.771Z,101006.84
2023-05-07T00:13:36.291Z,101020.69
2023-05-07T00:16:05.819Z,101017.25
2023-05-07T00:18:33.545Z,101015.88
2023-05-07T00:21:01.278Z,101021.50
2023-05-07T00:23:29.210Z,101021.84
2023-05-07T00:25:56.935Z,101029.25
2023-05-07T00:28:24.614Z,101023.78
2023-05-07T00:30:52.265Z,101018.56
2023-05-07T00:33:21.679Z,101024.38
2023-05-07T00:35:49.511Z,101028.19
2023-05-07T00:38:17.359Z,101029.81
2023-05-07T00:40:45.045Z,101030.31
2023-05-07T00:43:13.670Z,101023.41
2023-05-07T00:45:41.890Z,101028.94
2023-05-07T00:48:09.749Z,101025.53
2023-05-07T00:50:38.758Z,101028.47
2023-05-07T00:53:06.563Z,101036.81
2023-05-07T00:55:35.049Z,101027.56
2023-05-07T00:58:02.729Z,101025.94
2023-05-07T01:00:30.540Z,101034.41
2023-05-07T01:02:58.556Z,101033.78
2023-05-07T01:05:27.984Z,101036.19
2023-05-07T01:07:58.789Z,101031.22
2023-05-07T01:10:26.652Z,101032.25
2023-05-07T01:12:54.722Z,101032.44
2023-05-07T01:15:22.515Z,101041.72
2023-05-07T01:17:50.473Z,101032.72
2023-05-07T01:20:18.958Z,101012.41
2023-05-07T01:22:47.981Z,101022.31
2023-05-07T01:25:17.268Z,101017.03
2023-05-07T01:27:45.013Z,101011.25
2023-05-07T01:30:13.989Z,101010.72
2023-05-07T01:32:44.823Z,101012.56
2023-05-07T01:35:14.560Z,101007.53
2023-05-07T01:37:42.399Z,100995.16
2023-05-07T01:40:12.534Z,101002.16
2023-05-07T01:42:40.513Z,101005.44
2023-05-07T01:45:09.155Z,101003.72
2023-05-07T01:47:38.579Z,101000.75
2023-05-07T01:50:09.679Z,101008.22
2023-05-07T01:52:38.585Z,101013.16
2023-05-07T01:55:07.810Z,101010.00
2023-05-07T01:57:36.913Z,101000.47
2023-05-07T02:00:07.259Z,100997.75
2023-05-07T02:02:35.132Z,100999.81
2023-05-07T02:05:04.988Z,100997.94
2023-05-07T02:07:32.679Z,101006.66
2023-05-07T02:10:00.340Z,101005.34
2023-05-07T02:12:27.981Z,101010.41
2023-05-07T02:14:57.011Z,101013.25
2023-05-07T02:17:24.811Z,101014.97
2023-05-07T02:19:52.520Z,101005.84
2023-05-07T02:22:20.244Z,101026.28
2023-05-07T02:24:47.951Z,101029.50
2023-05-07T02:27:15.676Z,101025.25
2023-05-07T02:29:43.340Z,101025.13
2023-05-07T02:32:12.610Z,101027.47
2023-05-07T02:34:40.466Z,101033.09
2023-05-07T02:37:08.168Z,101025.13
2023-05-07T02:39:35.893Z,101030.75
2023-05-07T02:42:03.696Z,101032.13
2023-05-07T02:44:32.449Z,101025.50
2023-05-07T02:47:00.192Z,101011.56
2023-05-07T02:49:29.198Z,101034.22
2023-05-07T02:51:56.844Z,101031.50
2023-05-07T02:54:24.582Z,101016.25
2023-05-07T02:56:52.234Z,101013.28
2023-05-07T02:59:19.993Z,101024.22
2023-05-07T03:01:47.851Z,101025.44
2023-05-07T03:04:15.673Z,101015.19
2023-05-07T03:06:44.831Z,101006.19
2023-05-07T03:09:12.616Z,101008.78
2023-05-07T03:11:40.382Z,101001.09
2023-05-07T03:14:08.058Z,101011.13
2023-05-07T03:16:35.787Z,101014.69
2023-05-07T03:19:03.614Z,101006.44
2023-05-07T03:21:34.717Z,101013.28
2023-05-07T03:24:03.735Z,101008.44
2023-05-07T03:26:31.448Z,101000.47
2023-05-07T03:28:59.175Z,100994.66
2023-05-07T03:31:27.045Z,101000.59
2023-05-07T03:33:56.285Z,101010.81
2023-05-07T03:36:24.685Z,101004.00
2023-05-07T03:38:52.338Z,101018.34
2023-05-07T03:41:21.500Z,101023.16
2023-05-07T03:43:49.147Z,101019.84
2023-05-07T03:46:16.917Z,101008.34
2023-05-07T03:48:44.614Z,101016.28
2023-05-07T03:51:12.391Z,101016.13
2023-05-07T03:53:40.068Z,100995.00
2023-05-07T03:56:07.800Z,100992.84
2023-05-07T03:58:36.894Z,101013.94
2023-05-07T04:01:05.012Z,101026.34
2023-05-07T04:03:32.719Z,101021.22
2023-05-07T04:06:00.395Z,101032.47
2023-05-07T04:08:28.123Z,101034.94
2023-05-07T04:10:58.947Z,101019.06
2023-05-07T04:13:26.794Z,101033.72
2023-05-07T04:15:56.659Z,101032.03
2023-05-07T04:18:24.334Z,101040.72
2023-05-07T04:20:51.995Z,101045.72
2023-05-07T04:23:19.965Z,101043.53
2023-05-07T04:25:47.702Z,101035.03
2023-05-07T04:28:15.357Z,101028.63
2023-05-07T04:30:43.079Z,101032.41
2023-05-07T04:33:12.620Z,101032.00
2023-05-07T04:35:40.607Z,101049.34
2023-05-07T04:38:08.306Z,101023.13
2023-05-07T04:40:37.756Z,101024.84
2023-05-07T04:43:05.585Z,101044.88
2023-05-07T04:45:34.227Z,101052.44
2023-05-07T04:48:02.149Z,101045.44
2023-05-07T04:50:31.514Z,101041.47
2023-05-07T04:52:59.216Z,101047.78
2023-05-07T04:55:26.927Z,101060.38
2023-05-07T04:57:55.316Z,101046.03
2023-05-07T05:00:23.987Z,101058.22
2023-05-07T05:02:51.846Z,101049.81
2023-05-07T05:05:19.680Z,101063.81
2023-05-07T05:07:48.846Z,101063.13
2023-05-07T05:10:17.247Z,101058.06
2023-05-07T05:12:45.265Z,101060.41
2023-05-07T05:15:13.605Z,101061.91
2023-05-07T05:17:41.720Z,101064.41
2023-05-07T05:20:11.991Z,101062.84
2023-05-07T05:22:39.798Z,101064.84
2023-05-07T05:25:09.533Z,101071.06
2023-05-07T05:27:37.291Z,101074.53
2023-05-07T05:30:06.366Z,101075.97
2023-05-07T05:32:34.772Z,101057.00
2023-05-07T05:35:02.837Z,101069.66
2023-05-07T05:37:31.238Z,101089.28
2023-05-07T05:39:59.425Z,101061.91
2023-05-07T05:42:28.749Z,101064.59
2023-05-07T05:44:56.832Z,101076.91
2023-05-07T05:47:24.967Z,101076.59
2023-05-07T05:49:52.751Z,101087.19
2023-05-07T05:52:20.861Z,101091.63
2023-05-07T05:54:48.673Z,101107.13
2023-05-07T05:57:16.344Z,101094.56
2023-05-07T05:59:46.211Z,101100.97
2023-05-07T06:02:13.982Z,101106.06
2023-05-07T06:04:41.968Z,101098.13
2023-05-07T06:07:09.701Z,101108.19
2023-05-07T06:09:37.393Z,101110.97
2023-05-07T06:12:05.289Z,101088.25
2023-05-07T06:14:33.169Z,101096.69
2023-05-07T06:17:02.263Z,101110.22
2023-05-07T06:19:30.037Z,101108.63
2023-05-07T06:21:58.134Z,101099.63
2023-05-07T06:24:26.292Z,101110.38
2023-05-07T06:26:54.025Z,101115.81
2023-05-07T06:29:21.759Z,101126.38
2023-05-07T06:31:49.468Z,101106.69
2023-05-07T06:34:18.482Z,101124.03
2023-05-07T06:36:46.166Z,101126.06
2023-05-07T06:39:13.963Z,101114.25
2023-05-07T06:41:41.656Z,101124.06
2023-05-07T06:44:09.828Z,101126.81
2023-05-07T06:46:37.773Z,101115.00
2023-05-07T06:49:05.965Z,101127.25
2023-05-07T06:51:35.427Z,101130.84
2023-05-07T06:54:03.198Z,101128.94
2023-05-07T06:56:30.860Z,101128.72
2023-05-07T06:58:58.577Z,101134.91
2023-05-07T07:01:26.255Z,101120.84
2023-05-07T07:03:53.942Z,101147.88
2023-05-07T07:06:21.685Z,101152.09
2023-05-07T07:08:50.919Z,101141.66
2023-05-07T07:11:18.978Z,101151.41
2023-05-07T07:13:46.626Z,101147.38
2023-05-07T07:16:14.356Z,101141.03
2023-05-07T07:18:42.096Z,101137.31
2023-05-07T07:21:09.777Z,101147.16
2023-05-07T07:23:37.420Z,101120.13
2023-05-07T07:26:07.056Z,101139.84
2023-05-07T07:28:35.204Z,101135.66
2023-05-07T07:31:02.940Z,101135.03
2023-05-07T07:33:30.646Z,101136.09
2023-05-07T07:35:58.353Z,101133.13
2023-05-07T07:38:26.118Z,101118.09
2023-05-07T07:40:53.763Z,101129.78
2023-05-07T07:43:22.807Z,101137.88
2023-05-07T07:45:50.724Z,101139.16
2023-05-07T07:48:18.448Z,101157.94
2023-05-07T07:50:46.554Z,101148.13
2023-05-07T07:53:14.381Z,101152.06
2023-05-07T07:55:42.290Z,101147.56
2023-05-07T07:58:10.428Z,101150.38
2023-05-07T08:00:39.567Z,101147.50
2023-05-07T08:03:08.443Z,101145.16
2023-05-07T08:05:36.363Z,101146.13
2023-05-07T08:08:04.133Z,101139.22
2023-05-07T08:10:35.512Z,101142.75
2023-05-07T08:13:04.977Z,101138.78
2023-05-07T08:15:32.923Z,101135.94
2023-05-07T08:18:03.046Z,101150.38
2023-05-07T08:20:31.108Z,101145.69
2023-05-07T08:22:58.895Z,101152.47
2023-05-07T08:25:26.604Z,101150.97
2023-05-07T08:27:54.282Z,101166.34
2023-05-07T08:30:22.220Z,101146.41
2023-05-07T08:32:49.957Z,101146.47
2023-05-07T08:35:19.086Z,101175.66
2023-05-07T08:37:46.805Z,101170.06
2023-05-07T08:40:14.872Z,101163.47
2023-05-07T08:42:43.355Z,101151.63
2023-05-07T08:45:11.977Z,101147.44
2023-05-07T08:47:45.876Z,101154.03
2023-05-07T08:50:13.975Z,101176.03
2023-05-07T08:52:43.205Z,101170.59
2023-05-07T08:55:12.073Z,101173.50
2023-05-07T08:57:40.335Z,101160.53
2023-05-07T09:00:09.224Z,101177.00
2023-05-07T09:02:37.930Z,101178.78
2023-05-07T09:05:06.452Z,101165.25
2023-05-07T09:07:34.516Z,101177.13
2023-05-07T09:10:05.138Z,101156.03
2023-05-07T09:12:32.986Z,101153.00
2023-05-07T09:15:01.341Z,101160.31
2023-05-07T09:17:29.121Z,101165.06
2023-05-07T09:19:56.799Z,101151.41
2023-05-07T09:22:24.462Z,101172.41
2023-05-07T09:24:52.681Z,101185.22
2023-05-07T09:27:21.739Z,101169.28
2023-05-07T09:29:49.419Z,101158.69
2023-05-07T09:32:17.307Z,101177.53
2023-05-07T09:34:44.985Z,101157.66
2023-05-07T09:37:14.570Z,101179.84
2023-05-07T09:39:42.763Z,101176.34
2023-05-07T09:42:10.612Z,101162.47
2023-05-07T09:44:40.314Z,101153.72
2023-05-07T09:47:08.554Z,101161.13
2023-05-07T09:49:37.672Z,101172.16
2023-05-07T09:52:07.433Z,101173.78
2023-05-07T09:54:35.378Z,101157.88
2023-05-07T09:57:04.570Z,101176.00
2023-05-07T09:59:33.568Z,101163.31
2023-05-07T10:02:05.092Z,101162.34
2023-05-07T10:04:33.595Z,101178.28
2023-05-07T10:07:01.887Z,101173.38
2023-05-07T10:09:30.171Z,101170.97
2023-05-07T10:11:58.553Z,101183.00
2023-05-07T10:14:26.662Z,101154.13
2023-05-07T10:16:54.812Z,101154.91
2023-05-07T10:19:24.224Z,101167.94
2023-05-07T10:21:57.873Z,101152.25
2023-05-07T10:24:28.372Z,101166.25
2023-05-07T10:26:57.642Z,101133.13
2023-05-07T10:29:33.208Z,101158.09
2023-05-07T10:32:11.419Z,101172.78
2023-05-07T10:34:43.737Z,101157.47
2023-05-07T10:37:12.014Z,101181.03
2023-05-07T10:39:39.970Z,101186.78
2023-05-07T10:42:11.208Z,101182.72
2023-05-07T10:44:39.025Z,101173.03
2023-05-07T10:47:10.054Z,101176.66
2023-05-07T10:49:40.417Z,101194.00
2023-05-07T10:52:16.868Z,101169.66
2023-05-07T10:54:45.477Z,101181.38
2023-05-07T10:57:36.591Z,101187.28
2023-05-07T11:00:04.893Z,101179.44
2023-05-07T11:03:07.814Z,101167.50
2023-05-07T11:05:38.737Z,101160.63
2023-05-07T11:08:07.143Z,101163.22
2023-05-07T11:10:51.808Z,101177.50
2023-05-07T11:13:20.911Z,101169.25
2023-05-07T11:15:49.592Z,101184.91
2023-05-07T11:18:18.551Z,101153.25
2023-05-07T11:20:55.673Z,101178.00
2023-05-07T11:23:58.907Z,101177.25
2023-05-07T11:26:27.340Z,101177.56
2023-05-07T11:28:55.692Z,101169.69
2023-05-07T11:31:25.464Z,101160.25
2023-05-07T11:33:54.398Z,101180.31
2023-05-07T11:36:24.835Z,101193.72
2023-05-07T11:38:52.623Z,101158.63
2023-05-07T11:41:22.883Z,101168.53
2023-05-07T11:44:00.990Z,101151.88
2023-05-07T11:46:30.391Z,101180.03
2023-05-07T11:48:58.560Z,101155.97
2023-05-07T11:51:30.964Z,101155.97
2023-05-07T11:53:58.697Z,101173.66
2023-05-07T11:56:26.450Z,101173.28
2023-05-07T11:58:54.163Z,101164.84
2023-05-07T12:01:21.876Z,101162.88
2023-05-07T12:03:49.664Z,101166.00
2023-05-07T12:06:18.235Z,101172.78
2023-05-07T12:08:48.458Z,101178.44
2023-05-07T12:11:18.782Z,101188.63
2023-05-07T12:13:46.776Z,101179.72
2023-05-07T12:16:14.761Z,101179.59
2023-05-07T12:18:42.690Z,101162.34
2023-05-07T12:21:10.953Z,101168.63
2023-05-07T12:23:39.690Z,101161.81
2023-05-07T12:26:09.197Z,101172.50
2023-05-07T12:28:41.053Z,101159.41
2023-05-07T12:31:09.352Z,101154.91
2023-05-07T12:33:37.702Z,101178.44
2023-05-07T12:36:08.894Z,101168.50
2023-05-07T12:38:37.940Z,101158.41
2023-05-07T12:41:06.278Z,101153.47
2023-05-07T12:43:35.558Z,101175.38
2023-05-07T12:46:06.673Z,101179.84
2023-05-07T12:48:35.232Z,101184.22
2023-05-07T12:51:03.890Z,101172.69
2023-05-07T12:53:32.401Z,101172.88
2023-05-07T12:56:01.740Z,101185.38
2023-05-07T12:58:31.097Z,101191.16
2023-05-07T13:01:01.603Z,101186.09
2023-05-07T13:03:30.739Z,101186.91
2023-05-07T13:06:00.662Z,101186.38
2023-05-07T13:08:30.688Z,101184.78
2023-05-07T13:10:59.466Z,101185.38
2023-05-07T13:13:28.433Z,101187.09
2023-05-07T13:15:58.054Z,101185.69
2023-05-07T13:18:28.185Z,101190.31
2023-05-07T13:20:56.112Z,101187.44
2023-05-07T13:23:24.355Z,101188.09
2023-05-07T13:25:53.621Z,101185.00
2023-05-07T13:28:22.122Z,101176.97
2023-05-07T13:30:49.942Z,101165.47
2023-05-07T13:33:17.952Z,101167.75
2023-05-07T13:35:46.988Z,101162.34
2023-05-07T13:38:16.864Z,101157.00
2023-05-07T13:40:44.643Z,101165.50
2023-05-07T13:43:12.574Z,101172.78
2023-05-07T13:45:40.289Z,101184.47
2023-05-07T13:48:08.013Z,101157.28
2023-05-07T13:50:36.220Z,101179.31
2023-05-07T13:53:05.227Z,101180.00
2023-05-07T13:55:32.934Z,101174.50
2023-05-07T13:58:01.740Z,101156.91
2023-05-07T14:00:30.423Z,101169.97
2023-05-07T14:02:58.796Z,101166.03
2023-05-07T14:05:27.669Z,101171.38
2023-05-07T14:07:55.496Z,101149.38
2023-05-07T14:10:24.593Z,101169.06
2023-05-07T14:12:53.662Z,101165.22
2023-05-07T14:15:21.486Z,101163.22
2023-05-07T14:17:49.146Z,101184.72
2023-05-07T14:20:16.914Z,101185.97
2023-05-07T14:22:44.558Z,101185.22
2023-05-07T14:25:12.222Z,101187.34
2023-05-07T14:27:41.289Z,101182.44
2023-05-07T14:30:10.113Z,101183.72
2023-05-07T14:32:38.687Z,101173.63
2023-05-07T14:35:06.922Z,101181.22
2023-05-07T14:37:34.587Z,101184.91
2023-05-07T14:40:02.458Z,101188.97
2023-05-07T14:42:30.218Z,101169.66
2023-05-07T14:44:59.290Z,101177.34
2023-05-07T14:47:27.178Z,101181.88
2023-05-07T14:49:55.465Z,101185.19
2023-05-07T14:52:23.134Z,101186.91
2023-05-07T14:54:50.934Z,101197.16
2023-05-07T14:57:19.504Z,101195.72
2023-05-07T14:59:47.922Z,101191.56
2023-05-07T15:02:20.912Z,101170.53
2023-05-07T15:04:49.627Z,101188.53
2023-05-07T15:07:18.418Z,101192.88
2023-05-07T15:09:46.843Z,101197.84
2023-05-07T15:12:14.891Z,101188.09
2023-05-07T15:14:43.213Z,101179.38
2023-05-07T15:17:10.993Z,101190.81
2023-05-07T15:19:40.401Z,101189.16
2023-05-07T15:22:08.203Z,101192.72
2023-05-07T15:24:36.246Z,101178.97
2023-05-07T15:27:04.692Z,101184.13
2023-05-07T15:29:32.379Z,101184.50
2023-05-07T15:32:00.234Z,101175.31
2023-05-07T15:34:28.460Z,101198.34
2023-05-07T15:36:58.720Z,101181.50
2023-05-07T15:39:26.364Z,101194.66
2023-05-07T15:41:54.084Z,101196.88
2023-05-07T15:44:22.022Z,101192.56
2023-05-07T15:46:49.724Z,101181.56
2023-05-07T15:49:17.382Z,101186.38
2023-05-07T15:51:45.077Z,101188.69
2023-05-07T15:54:14.163Z,101170.16
2023-05-07T15:56:41.818Z,101178.09
2023-05-07T15:59:10.171Z,101186.34
2023-05-07T16:01:37.904Z,101178.72
2023-05-07T16:04:05.956Z,101186.53
2023-05-07T16:06:33.702Z,101184.50
2023-05-07T16:09:01.421Z,101192.75
2023-05-07T16:11:31.381Z,101201.47
2023-05-07T16:14:00.824Z,101196.06
2023-05-07T16:16:30.126Z,101179.91
2023-05-07T16:18:58.025Z,101178.91
2023-05-07T16:21:25.737Z,101181.66
2023-05-07T16:23:53.403Z,101185.34
2023-05-07T16:26:21.208Z,101183.84
2023-05-07T16:28:51.707Z,101181.88
2023-05-07T16:31:19.755Z,101183.97
2023-05-07T16:33:47.492Z,101178.09
2023-05-07T16:36:15.235Z,101185.53
2023-05-07T16:38:42.901Z,101183.94
2023-05-07T16:41:11.602Z,101177.53
2023-05-07T16:43:39.329Z,101188.59
2023-05-07T16:46:08.427Z,101190.00
2023-05-07T16:48:36.227Z,101186.16
2023-05-07T16:51:03.924Z,101178.13
2023-05-07T16:53:31.644Z,101186.88
2023-05-07T16:55:59.375Z,101192.56
2023-05-07T16:58:28.110Z,101195.00
2023-05-07T17:00:55.909Z,101209.34
2023-05-07T17:03:25.102Z,101201.88
2023-05-07T17:05:53.304Z,101195.66
2023-05-07T17:08:20.970Z,101195.31
2023-05-07T17:10:48.640Z,101187.72
2023-05-07T17:13:16.379Z,101206.31
2023-05-07T17:15:46.504Z,101198.75
2023-05-07T17:18:14.491Z,101206.63
2023-05-07T17:20:43.541Z,101196.25
2023-05-07T17:23:11.203Z,101214.94
2023-05-07T17:25:39.149Z,101211.63
2023-05-07T17:28:06.877Z,101200.09
2023-05-07T17:30:34.614Z,101219.22
2023-05-07T17:33:16.762Z,101226.94
2023-05-07T17:35:46.268Z,101224.72
2023-05-07T17:38:13.976Z,101223.66
2023-05-07T17:40:41.677Z,101230.88
2023-05-07T17:43:09.340Z,101224.56
2023-05-07T17:45:37.154Z,101235.94
2023-05-07T17:48:05.734Z,101232.50
2023-05-07T17:50:33.591Z,101220.59
2023-05-07T17:53:02.601Z,101236.13
2023-05-07T17:55:33.521Z,101245.69
2023-05-07T17:58:03.263Z,101244.09
2023-05-07T18:00:31.052Z,101245.22
2023-05-07T18:03:00.100Z,101248.28
2023-05-07T18:05:28.369Z,101246.47
2023-05-07T18:07:56.232Z,101260.94
2023-05-07T18:10:25.299Z,101255.94
2023-05-07T18:12:53.024Z,101242.50
2023-05-07T18:15:20.832Z,101250.00
2023-05-07T18:17:48.584Z,101253.66
2023-05-07T18:20:16.399Z,101249.66
2023-05-07T18:22:44.149Z,101252.94
2023-05-07T18:25:11.866Z,101252.00
2023-05-07T18:27:41.162Z,101262.88
2023-05-07T18:30:10.191Z,101263.88
2023-05-07T18:32:38.069Z,101267.75
2023-05-07T18:35:06.651Z,101267.16
2023-05-07T18:37:34.617Z,101277.22
2023-05-07T18:40:04.074Z,101258.81
2023-05-07T18:42:34.035Z,101270.34
2023-05-07T18:45:06.107Z,101265.63
2023-05-07T18:47:33.874Z,101274.72
2023-05-07T18:50:01.798Z,101286.22
2023-05-07T18:52:30.497Z,101269.50
2023-05-07T18:54:58.271Z,101286.69
2023-05-07T18:57:27.635Z,101281.13
2023-05-07T18:59:55.626Z,101290.34
2023-05-07T19:02:24.796Z,101281.66
2023-05-07T19:04:52.484Z,101290.84
2023-05-07T19:07:20.201Z,101287.34
2023-05-07T19:10:01.049Z,101292.25
2023-05-07T19:12:31.666Z,101280.56
2023-05-07T19:14:59.396Z,101296.81
2023-05-07T19:17:28.494Z,101292.38
2023-05-07T19:19:56.324Z,101299.84
2023-05-07T19:22:24.010Z,101291.22
2023-05-07T19:24:52.158Z,101295.72
2023-05-07T19:27:19.903Z,101307.47
2023-05-07T19:29:47.584Z,101295.06
2023-05-07T19:32:15.351Z,101312.56
2023-05-07T19:34:44.375Z,101306.69
2023-05-07T19:37:12.083Z,101305.41
2023-05-07T19:39:40.482Z,101322.75
2023-05-07T19:42:08.210Z,101316.47
2023-05-07T19:44:35.881Z,101323.22
2023-05-07T19:47:05.716Z,101307.94
2023-05-07T19:49:33.542Z,101306.63
2023-05-07T19:52:02.653Z,101322.47
2023-05-07T19:54:30.800Z,101330.09
2023-05-07T19:56:58.652Z,101328.81
2023-05-07T19:59:27.167Z,101330.22
2023-05-07T20:01:55.138Z,101316.63
2023-05-07T20:04:25.360Z,101330.66
2023-05-07T20:06:53.089Z,101340.78
2023-05-07T20:09:22.111Z,101341.16
2023-05-07T20:11:49.838Z,101339.34
2023-05-07T20:14:17.958Z,101340.53
2023-05-07T20:16:46.005Z,101333.63
2023-05-07T20:19:13.733Z,101348.19
2023-05-07T20:21:41.567Z,101323.53
2023-05-07T20:24:09.645Z,101354.47
2023-05-07T20:26:38.707Z,101334.41
2023-05-07T20:29:06.966Z,101347.94
2023-05-07T20:31:35.405Z,101363.00
2023-05-07T20:34:03.366Z,101362.34
2023-05-07T20:36:31.065Z,101363.84
2023-05-07T20:38:58.725Z,101373.44
2023-05-07T20:41:26.823Z,101372.19
2023-05-07T20:43:57.063Z,101376.00
2023-05-07T20:46:25.584Z,101365.28
2023-05-07T20:48:53.280Z,101355.97
2023-05-07T20:51:20.942Z,101378.31
2023-05-07T20:53:48.575Z,101379.53
2023-05-07T20:56:16.391Z,101371.34
2023-05-07T20:58:44.095Z,101367.72
2023-05-07T21:01:13.339Z,101373.34
2023-05-07T21:03:41.299Z,101368.03
2023-05-07T21:06:08.940Z,101376.66
2023-05-07T21:08:36.591Z,101378.38
2023-05-07T21:11:05.750Z,101375.59
2023-05-07T21:13:33.395Z,101390.81
2023-05-07T21:16:01.151Z,101378.38
2023-05-07T21:18:30.875Z,101379.66
2023-05-07T21:20:58.579Z,101393.28
2023-05-07T21:23:26.310Z,101397.63
2023-05-07T21:25:54.025Z,101397.09
2023-05-07T21:28:21.664Z,101407.31
2023-05-07T21:30:49.361Z,101409.03
2023-05-07T21:33:17.066Z,101412.44
2023-05-07T21:35:46.087Z,101409.03
2023-05-07T21:38:14.070Z,101408.72
2023-05-07T21:40:41.844Z,101406.91
2023-05-07T21:43:09.522Z,101393.69
2023-05-07T21:45:37.242Z,101402.22
2023-05-07T21:48:05.397Z,101402.84
2023-05-07T21:50:33.168Z,101400.50
2023-05-07T21:53:02.241Z,101406.13
2023-05-07T21:55:30.078Z,101409.44
2023-05-07T21:58:05.542Z,101391.13
2023-05-07T22:00:34.167Z,101400.88
2023-05-07T22:03:01.939Z,101397.69
2023-05-07T22:05:29.714Z,101400.13
2023-05-07T22:07:57.355Z,101402.03
2023-05-07T22:10:26.442Z,101399.09
2023-05-07T22:12:54.203Z,101410.47
2023-05-07T22:15:21.997Z,101407.53
2023-05-07T22:17:49.669Z,101409.25
2023-05-07T22:20:17.637Z,101409.59
2023-05-07T22:22:51.114Z,101415.59
2023-05-07T22:25:20.435Z,101409.78
2023-05-07T22:27:49.819Z,101410.53
2023-05-07T22:30:17.723Z,101407.91
2023-05-07T22:32:46.500Z,101418.47
2023-05-07T22:35:15.063Z,101411.38
2023-05-07T22:37:42.756Z,101404.97
2023-05-07T22:40:11.454Z,101414.94
2023-05-07T22:42:39.407Z,101421.94
2023-05-07T22:45:09.670Z,101415.94
2023-05-07T22:47:37.350Z,101420.38
2023-05-07T22:50:06.489Z,101409.69
2023-05-07T22:52:34.587Z,101400.59
2023-05-07T22:55:02.525Z,101404.97
2023-05-07T22:57:30.445Z,101414.03
2023-05-07T22:59:58.428Z,101407.47
2023-05-07T23:02:29.180Z,101416.78
2023-05-07T23:04:59.680Z,101420.66
2023-05-07T23:07:27.398Z,101425.56
2023-05-07T23:09:55.061Z,101417.03
2023-05-07T23:12:22.792Z,101422.56
2023-05-07T23:14:50.889Z,101427.16
2023-05-07T23:17:18.533Z,101418.94
2023-05-07T23:19:47.803Z,101418.66
2023-05-07T23:22:15.932Z,101408.09
2023-05-07T23:24:43.783Z,101413.66
2023-05-07T23:27:11.561Z,101423.59
2023-05-07T23:29:39.312Z,101413.03
2023-05-07T23:32:07.058Z,101413.78
2023-05-07T23:34:34.720Z,101417.91
2023-05-07T23:37:03.844Z,101421.13
2023-05-07T23:39:31.578Z,101416.78
2023-05-07T23:41:59.245Z,101408.56
2023-05-07T23:44:26.938Z,101410.63
2023-05-07T23:46:54.712Z,101409.91
2023-05-07T23:49:22.382Z,101412.28
2023-05-07T23:51:50.035Z,101403.84
2023-05-07T23:54:19.567Z,101415.97
2023-05-07T23:56:47.261Z,101405.53
2023-05-07T23:59:14.972Z,101409.91
